Terminal Aerodrome Forecast
Issued by NWS Medford, OR

Home | Current Version | Previous Version | Text Only | Print | Product List | Glossary On
Versions: 1 2 3 4 5 6 7 8 9 10 11 12 13 14 15 16 17
000
FTUS46 KMFR 042341
TAFMFR
TAF
KMFR 042341Z 0500/0524 35015G23KT P6SM -SHRA VCTS SCT040 OVC060CB
     FM050100 34010KT P6SM -SHRA SCT040 BKN060
     FM050400 VRB03KT P6SM SCT020 BKN035
     FM051700 31005KT P6SM SCT050=

USA.gov is the U.S. government's official web portal to all federal, state and local government web resources and services.